sensor_id;sensor_type;location;lat;lon;timestamp;pressure;altitude;pressure_sealevel;temperature;humidity
68634;BME280;55625;47.072;22.192;2024-03-02T00:00:38;99123.59;;;10.14;100.00
68634;BME280;55625;47.072;22.192;2024-03-02T00:03:07;99118.69;;;10.14;100.00
68634;BME280;55625;47.072;22.192;2024-03-02T00:05:35;99119.16;;;10.13;100.00
68634;BME280;55625;47.072;22.192;2024-03-02T00:08:02;99112.03;;;10.08;100.00
68634;BME280;55625;47.072;22.192;2024-03-02T00:10:40;99109.66;;;10.07;100.00
68634;BME280;55625;47.072;22.192;2024-03-02T00:13:10;99105.56;;;10.08;100.00
68634;BME280;55625;47.072;22.192;2024-03-02T00:15:51;99096.94;;;10.11;100.00
68634;BME280;55625;47.072;22.192;2024-03-02T00:18:31;99095.69;;;10.12;100.00
68634;BME280;55625;47.072;22.192;2024-03-02T00:20:57;99095.22;;;10.14;100.00
68634;BME280;55625;47.072;22.192;2024-03-02T00:23:27;99094.75;;;10.15;100.00
68634;BME280;55625;47.072;22.192;2024-03-02T00:25:55;99099.19;;;10.16;100.00
68634;BME280;55625;47.072;22.192;2024-03-02T00:28:36;99098.72;;;10.18;100.00
68634;BME280;55625;47.072;22.192;2024-03-02T00:31:10;99092.84;;;10.12;100.00
68634;BME280;55625;47.072;22.192;2024-03-02T00:33:49;99110.78;;;10.09;100.00
68634;BME280;55625;47.072;22.192;2024-03-02T00:36:27;99110.00;;;10.09;100.00
68634;BME280;55625;47.072;22.192;2024-03-02T00:38:54;99106.72;;;10.10;100.00
68634;BME280;55625;47.072;22.192;2024-03-02T00:41:30;99114.16;;;10.17;100.00
68634;BME280;55625;47.072;22.192;2024-03-02T00:46:29;99107.03;;;10.12;100.00
68634;BME280;55625;47.072;22.192;2024-03-02T00:49:00;99098.22;;;10.10;100.00
68634;BME280;55625;47.072;22.192;2024-03-02T00:51:30;99093.31;;;10.11;100.00
68634;BME280;55625;47.072;22.192;2024-03-02T00:54:00;99107.03;;;10.12;100.00
68634;BME280;55625;47.072;22.192;2024-03-02T00:56:30;99112.38;;;10.10;100.00
68634;BME280;55625;47.072;22.192;2024-03-02T00:58:56;99100.69;;;10.08;100.00
68634;BME280;55625;47.072;22.192;2024-03-02T01:01:22;99116.44;;;10.09;100.00
68634;BME280;55625;47.072;22.192;2024-03-02T01:03:49;99110.78;;;10.09;100.00
68634;BME280;55625;47.072;22.192;2024-03-02T01:06:16;99113.03;;;10.14;100.00
68634;BME280;55625;47.072;22.192;2024-03-02T01:08:43;99109.72;;;10.16;100.00
68634;BME280;55625;47.072;22.192;2024-03-02T01:11:09;99128.53;;;10.22;100.00
68634;BME280;55625;47.072;22.192;2024-03-02T01:13:36;99119.56;;;10.33;99.40
68634;BME280;55625;47.072;22.192;2024-03-02T01:16:02;99121.69;;;10.42;97.91
68634;BME280;55625;47.072;22.192;2024-03-02T01:18:28;99127.06;;;10.49;97.87
68634;BME280;55625;47.072;22.192;2024-03-02T01:20:54;99130.69;;;10.49;98.32
68634;BME280;55625;47.072;22.192;2024-03-02T01:23:24;99142.19;;;10.55;97.54
68634;BME280;55625;47.072;22.192;2024-03-02T01:25:51;99132.75;;;10.58;97.31
68634;BME280;55625;47.072;22.192;2024-03-02T01:28:18;99130.22;;;10.60;96.22
68634;BME280;55625;47.072;22.192;2024-03-02T01:30:48;99131.81;;;10.61;96.10
68634;BME280;55625;47.072;22.192;2024-03-02T01:33:14;99143.16;;;10.61;96.02
68634;BME280;55625;47.072;22.192;2024-03-02T01:35:40;99133.38;;;10.62;96.14
68634;BME280;55625;47.072;22.192;2024-03-02T01:38:06;99135.59;;;10.58;98.24
68634;BME280;55625;47.072;22.192;2024-03-02T01:40:34;99140.94;;;10.56;97.44
68634;BME280;55625;47.072;22.192;2024-03-02T01:43:00;99127.69;;;10.53;98.96
68634;BME280;55625;47.072;22.192;2024-03-02T01:45:28;99125.16;;;10.46;99.91
68634;BME280;55625;47.072;22.192;2024-03-02T01:47:54;99115.66;;;10.40;100.00
68634;BME280;55625;47.072;22.192;2024-03-02T01:50:31;99099.72;;;10.33;100.00
68634;BME280;55625;47.072;22.192;2024-03-02T01:52:58;99111.22;;;10.30;100.00
68634;BME280;55625;47.072;22.192;2024-03-02T01:55:25;99115.00;;;10.26;100.00
68634;BME280;55625;47.072;22.192;2024-03-02T01:57:52;99117.50;;;10.24;100.00
68634;BME280;55625;47.072;22.192;2024-03-02T02:00:19;99112.09;;;10.17;100.00
68634;BME280;55625;47.072;22.192;2024-03-02T02:02:49;99106.44;;;10.17;100.00
68634;BME280;55625;47.072;22.192;2024-03-02T02:05:15;99096.47;;;10.13;100.00
68634;BME280;55625;47.072;22.192;2024-03-02T02:07:42;99106.25;;;10.12;100.00
68634;BME280;55625;47.072;22.192;2024-03-02T02:10:10;99100.56;;;10.12;100.00
68634;BME280;55625;47.072;22.192;2024-03-02T02:12:37;99111.44;;;10.13;100.00
68634;BME280;55625;47.072;22.192;2024-03-02T02:15:21;99118.84;;;10.11;100.00
68634;BME280;55625;47.072;22.192;2024-03-02T02:17:47;99119.56;;;10.02;100.00
68634;BME280;55625;47.072;22.192;2024-03-02T02:20:13;99124.31;;;10.05;100.00
68634;BME280;55625;47.072;22.192;2024-03-02T02:22:39;99131.88;;;10.08;100.00
68634;BME280;55625;47.072;22.192;2024-03-02T02:25:06;99133.91;;;10.08;100.00
68634;BME280;55625;47.072;22.192;2024-03-02T02:27:31;99138.81;;;10.07;100.00
68634;BME280;55625;47.072;22.192;2024-03-02T02:29:57;99138.22;;;10.12;100.00
68634;BME280;55625;47.072;22.192;2024-03-02T02:32:23;99136.72;;;9.99;100.00
68634;BME280;55625;47.072;22.192;2024-03-02T02:34:52;99131.94;;;9.86;100.00
68634;BME280;55625;47.072;22.192;2024-03-02T02:37:18;99135.25;;;9.85;100.00
68634;BME280;55625;47.072;22.192;2024-03-02T02:39:44;99124.84;;;9.82;100.00
68634;BME280;55625;47.072;22.192;2024-03-02T02:42:12;99120.41;;;9.81;100.00
68634;BME280;55625;47.072;22.192;2024-03-02T02:44:38;99120.41;;;9.81;100.00
68634;BME280;55625;47.072;22.192;2024-03-02T02:47:04;99112.34;;;9.79;100.00
68634;BME280;55625;47.072;22.192;2024-03-02T02:49:31;99109.97;;;9.78;100.00
68634;BME280;55625;47.072;22.192;2024-03-02T02:51:57;99106.03;;;9.75;100.00
68634;BME280;55625;47.072;22.192;2024-03-02T02:54:23;99108.53;;;9.73;100.00
68634;BME280;55625;47.072;22.192;2024-03-02T02:56:49;99109.47;;;9.70;100.00
68634;BME280;55625;47.072;22.192;2024-03-02T02:59:15;99110.88;;;9.65;100.00
68634;BME280;55625;47.072;22.192;2024-03-02T03:01:41;99106.13;;;9.62;100.00
68634;BME280;55625;47.072;22.192;2024-03-02T03:04:06;99094.47;;;9.60;100.00
68634;BME280;55625;47.072;22.192;2024-03-02T03:06:32;99101.06;;;9.57;100.00
68634;BME280;55625;47.072;22.192;2024-03-02T03:08:58;99090.66;;;9.54;100.00
68634;BME280;55625;47.072;22.192;2024-03-02T03:11:24;99088.28;;;9.53;100.00
68634;BME280;55625;47.072;22.192;2024-03-02T03:13:53;99094.75;;;9.53;100.00
68634;BME280;55625;47.072;22.192;2024-03-02T03:16:20;99093.16;;;9.52;100.00
68634;BME280;55625;47.072;22.192;2024-03-02T03:18:46;99098.81;;;9.52;100.00
68634;BME280;55625;47.072;22.192;2024-03-02T03:21:12;99086.03;;;9.48;100.00
68634;BME280;55625;47.072;22.192;2024-03-02T03:23:37;99088.06;;;9.47;100.00
68634;BME280;55625;47.072;22.192;2024-03-02T03:26:03;99092.16;;;9.46;100.00
68634;BME280;55625;47.072;22.192;2024-03-02T03:28:30;99091.81;;;9.44;100.00
68634;BME280;55625;47.072;22.192;2024-03-02T03:30:56;99083.00;;;9.42;100.00
68634;BME280;55625;47.072;22.192;2024-03-02T03:33:21;99096.06;;;9.40;100.00
68634;BME280;55625;47.072;22.192;2024-03-02T03:35:47;99093.47;;;9.32;100.00
68634;BME280;55625;47.072;22.192;2024-03-02T03:38:13;99104.47;;;9.30;100.00
68634;BME280;55625;47.072;22.192;2024-03-02T03:40:39;99094.88;;;9.28;100.00
68634;BME280;55625;47.072;22.192;2024-03-02T03:43:05;99086.06;;;9.26;100.00
68634;BME280;55625;47.072;22.192;2024-03-02T03:45:31;99092.63;;;9.23;100.00
68634;BME280;55625;47.072;22.192;2024-03-02T03:47:57;99099.09;;;9.23;100.00
68634;BME280;55625;47.072;22.192;2024-03-02T03:50:23;99098.84;;;9.18;100.00
68634;BME280;55625;47.072;22.192;2024-03-02T03:52:49;99102.16;;;9.16;100.00
68634;BME280;55625;47.072;22.192;2024-03-02T03:55:15;99108.28;;;9.15;100.00
68634;BME280;55625;47.072;22.192;2024-03-02T03:57:41;99097.09;;;9.11;100.00
68634;BME280;55625;47.072;22.192;2024-03-02T04:00:08;99105.25;;;9.09;100.00
68634;BME280;55625;47.072;22.192;2024-03-02T04:02:36;99107.75;;;9.07;100.00
68634;BME280;55625;47.072;22.192;2024-03-02T04:05:02;99100.97;;;9.05;100.00
68634;BME280;55625;47.072;22.192;2024-03-02T04:07:37;99100.38;;;9.10;100.00
68634;BME280;55625;47.072;22.192;2024-03-02T04:10:12;99106.41;;;8.99;100.00
68634;BME280;55625;47.072;22.192;2024-03-02T04:12:38;99103.72;;;8.95;100.00
68634;BME280;55625;47.072;22.192;2024-03-02T04:15:05;99101.34;;;8.94;100.00
68634;BME280;55625;47.072;22.192;2024-03-02T04:17:33;99101.81;;;8.92;100.00
68634;BME280;55625;47.072;22.192;2024-03-02T04:20:00;99114.72;;;8.93;100.00
68634;BME280;55625;47.072;22.192;2024-03-02T04:22:27;99098.97;;;8.92;100.00
68634;BME280;55625;47.072;22.192;2024-03-02T04:24:53;99103.38;;;8.93;100.00
68634;BME280;55625;47.072;22.192;2024-03-02T04:27:20;99099.31;;;8.94;100.00
68634;BME280;55625;47.072;22.192;2024-03-02T04:29:46;99099.31;;;8.94;100.00
68634;BME280;55625;47.072;22.192;2024-03-02T04:32:11;99114.25;;;8.95;100.00
68634;BME280;55625;47.072;22.192;2024-03-02T04:34:37;99109.38;;;8.95;100.00
68634;BME280;55625;47.072;22.192;2024-03-02T04:37:03;99104.19;;;8.94;100.00
68634;BME280;55625;47.072;22.192;2024-03-02T04:39:29;99100.09;;;8.95;100.00
68634;BME280;55625;47.072;22.192;2024-03-02T04:41:55;99104.97;;;8.94;100.00
68634;BME280;55625;47.072;22.192;2024-03-02T04:44:21;99109.97;;;8.90;100.00
68634;BME280;55625;47.072;22.192;2024-03-02T04:46:47;99106.81;;;8.88;100.00
68634;BME280;55625;47.072;22.192;2024-03-02T04:49:13;99106.81;;;8.88;100.00
68634;BME280;55625;47.072;22.192;2024-03-02T04:51:39;99108.38;;;8.89;100.00
68634;BME280;55625;47.072;22.192;2024-03-02T04:54:05;99109.72;;;8.85;100.00
68634;BME280;55625;47.072;22.192;2024-03-02T04:56:31;99105.00;;;8.82;100.00
68634;BME280;55625;47.072;22.192;2024-03-02T04:58:57;99108.28;;;8.80;100.00
68634;BME280;55625;47.072;22.192;2024-03-02T05:01:23;99109.53;;;8.79;100.00
68634;BME280;55625;47.072;22.192;2024-03-02T05:03:49;99116.78;;;8.80;100.00
68634;BME280;55625;47.072;22.192;2024-03-02T05:06:15;99116.09;;;8.76;100.00
68634;BME280;55625;47.072;22.192;2024-03-02T05:08:41;99120.19;;;8.75;100.00
68634;BME280;55625;47.072;22.192;2024-03-02T05:11:07;99124.59;;;8.76;100.00
68634;BME280;55625;47.072;22.192;2024-03-02T05:13:52;99122.56;;;8.77;100.00
68634;BME280;55625;47.072;22.192;2024-03-02T05:16:17;99121.75;;;8.76;100.00
68634;BME280;55625;47.072;22.192;2024-03-02T05:18:43;99126.97;;;8.78;100.00
68634;BME280;55625;47.072;22.192;2024-03-02T05:21:09;99142.34;;;8.77;100.00
68634;BME280;55625;47.072;22.192;2024-03-02T05:23:37;99143.16;;;8.77;100.00
68634;BME280;55625;47.072;22.192;2024-03-02T05:26:03;99138.72;;;8.76;100.00
68634;BME280;55625;47.072;22.192;2024-03-02T05:28:29;99145.50;;;8.79;100.00
68634;BME280;55625;47.072;22.192;2024-03-02T05:30:55;99154.00;;;8.79;100.00
68634;BME280;55625;47.072;22.192;2024-03-02T05:33:21;99161.56;;;8.82;100.00
68634;BME280;55625;47.072;22.192;2024-03-02T05:35:48;99166.34;;;8.72;100.00
68634;BME280;55625;47.072;22.192;2024-03-02T05:38:16;99158.78;;;8.69;100.00
68634;BME280;55625;47.072;22.192;2024-03-02T05:40:42;99166.81;;;8.70;100.00
68634;BME280;55625;47.072;22.192;2024-03-02T05:43:08;99167.94;;;8.73;100.00
68634;BME280;55625;47.072;22.192;2024-03-02T05:45:33;99173.13;;;8.75;100.00
68634;BME280;55625;47.072;22.192;2024-03-02T05:47:59;99176.75;;;8.75;100.00
68634;BME280;55625;47.072;22.192;2024-03-02T05:50:25;99179.91;;;8.77;100.00
68634;BME280;55625;47.072;22.192;2024-03-02T05:52:52;99180.25;;;8.79;100.00
68634;BME280;55625;47.072;22.192;2024-03-02T05:55:18;99197.91;;;8.83;100.00
68634;BME280;55625;47.072;22.192;2024-03-02T05:57:44;99201.06;;;8.85;100.00
68634;BME280;55625;47.072;22.192;2024-03-02T06:00:10;99198.56;;;8.87;100.00
68634;BME280;55625;47.072;22.192;2024-03-02T06:02:40;99200.53;;;8.90;100.00
68634;BME280;55625;47.072;22.192;2024-03-02T06:05:08;99200.06;;;8.92;100.00
68634;BME280;55625;47.072;22.192;2024-03-02T06:07:34;99196.44;;;8.91;100.00
68634;BME280;55625;47.072;22.192;2024-03-02T06:10:00;99212.97;;;8.93;100.00
68634;BME280;55625;47.072;22.192;2024-03-02T06:12:26;99208.44;;;8.95;100.00
68634;BME280;55625;47.072;22.192;2024-03-02T06:14:52;99195.53;;;8.94;100.00
68634;BME280;55625;47.072;22.192;2024-03-02T06:17:18;99194.28;;;8.95;100.00
68634;BME280;55625;47.072;22.192;2024-03-02T06:19:44;99203.22;;;8.94;100.00
68634;BME280;55625;47.072;22.192;2024-03-02T06:22:10;99205.59;;;8.95;100.00
68634;BME280;55625;47.072;22.192;2024-03-02T06:24:37;99217.38;;;8.94;100.00
68634;BME280;55625;47.072;22.192;2024-03-02T06:27:03;99217.72;;;8.96;100.00
68634;BME280;55625;47.072;22.192;2024-03-02T06:29:33;99233.56;;;8.93;100.00
68634;BME280;55625;47.072;22.192;2024-03-02T06:31:59;99222.69;;;8.92;100.00
68634;BME280;55625;47.072;22.192;2024-03-02T06:34:26;99234.69;;;8.96;100.00
68634;BME280;55625;47.072;22.192;2024-03-02T06:36:51;99221.66;;;8.98;100.00
68634;BME280;55625;47.072;22.192;2024-03-02T06:39:17;99224.38;;;9.02;100.00
68634;BME280;55625;47.072;22.192;2024-03-02T06:41:43;99227.09;;;9.06;100.00
68634;BME280;55625;47.072;22.192;2024-03-02T06:44:09;99223.66;;;9.11;100.00
68634;BME280;55625;47.072;22.192;2024-03-02T06:46:35;99219.94;;;9.14;100.00
68634;BME280;55625;47.072;22.192;2024-03-02T06:49:01;99213.47;;;9.13;100.00
68634;BME280;55625;47.072;22.192;2024-03-02T06:51:28;99224.13;;;9.22;100.00
68634;BME280;55625;47.072;22.192;2024-03-02T06:53:54;99216.41;;;9.22;100.00
68634;BME280;55625;47.072;22.192;2024-03-02T06:56:21;99219.59;;;9.24;100.00
68634;BME280;55625;47.072;22.192;2024-03-02T06:58:47;99223.06;;;9.28;100.00
68634;BME280;55625;47.072;22.192;2024-03-02T07:01:13;99237.91;;;9.32;100.00
68634;BME280;55625;47.072;22.192;2024-03-02T07:03:39;99247.50;;;9.35;100.00
68634;BME280;55625;47.072;22.192;2024-03-02T07:06:05;99228.50;;;9.36;100.00
68634;BME280;55625;47.072;22.192;2024-03-02T07:08:31;99232.78;;;9.40;100.00
68634;BME280;55625;47.072;22.192;2024-03-02T07:10:57;99244.31;;;9.46;100.00
68634;BME280;55625;47.072;22.192;2024-03-02T07:13:23;99241.38;;;9.49;100.00
68634;BME280;55625;47.072;22.192;2024-03-02T07:15:49;99241.72;;;9.51;100.00
68634;BME280;55625;47.072;22.192;2024-03-02T07:18:34;99247.56;;;9.57;100.00
68634;BME280;55625;47.072;22.192;2024-03-02T07:21:03;99239.41;;;9.59;100.00
68634;BME280;55625;47.072;22.192;2024-03-02T07:23:29;99238.34;;;9.65;100.00
68634;BME280;55625;47.072;22.192;2024-03-02T07:25:56;99238.22;;;9.69;100.00
68634;BME280;55625;47.072;22.192;2024-03-02T07:28:31;99238.41;;;9.75;100.00
68634;BME280;55625;47.072;22.192;2024-03-02T07:30:59;99254.84;;;9.80;100.00
68634;BME280;55625;47.072;22.192;2024-03-02T07:33:26;99254.25;;;9.85;100.00
68634;BME280;55625;47.072;22.192;2024-03-02T07:35:54;99259.81;;;9.88;100.00
68634;BME280;55625;47.072;22.192;2024-03-02T07:38:21;99251.94;;;9.92;100.00
68634;BME280;55625;47.072;22.192;2024-03-02T07:40:49;99250.56;;;9.97;100.00
68634;BME280;55625;47.072;22.192;2024-03-02T07:43:19;99262.56;;;10.01;100.00
68634;BME280;55625;47.072;22.192;2024-03-02T07:45:48;99253.13;;;10.04;100.00
68634;BME280;55625;47.072;22.192;2024-03-02T07:48:15;99251.88;;;10.05;100.00
68634;BME280;55625;47.072;22.192;2024-03-02T07:50:41;99262.97;;;10.12;100.00
68634;BME280;55625;47.072;22.192;2024-03-02T07:53:08;99267.25;;;10.17;100.00
68634;BME280;55625;47.072;22.192;2024-03-02T07:55:34;99264.63;;;10.22;100.00
68634;BME280;55625;47.072;22.192;2024-03-02T07:58:01;99259.16;;;10.28;100.00
68634;BME280;55625;47.072;22.192;2024-03-02T08:00:27;99268.50;;;10.38;100.00
68634;BME280;55625;47.072;22.192;2024-03-02T08:02:54;99277.22;;;10.43;100.00
68634;BME280;55625;47.072;22.192;2024-03-02T08:05:21;99266.06;;;10.49;100.00
68634;BME280;55625;47.072;22.192;2024-03-02T08:07:47;99271.59;;;10.52;100.00
68634;BME280;55625;47.072;22.192;2024-03-02T08:10:13;99276.34;;;10.55;100.00
68634;BME280;55625;47.072;22.192;2024-03-02T08:12:39;99281.88;;;10.59;100.00
68634;BME280;55625;47.072;22.192;2024-03-02T08:15:06;99271.97;;;10.64;100.00
68634;BME280;55625;47.072;22.192;2024-03-02T08:17:32;99274.41;;;10.74;100.00
68634;BME280;55625;47.072;22.192;2024-03-02T08:19:58;99281.03;;;10.80;100.00
68634;BME280;55625;47.072;22.192;2024-03-02T08:22:24;99281.06;;;10.89;100.00
68634;BME280;55625;47.072;22.192;2024-03-02T08:24:53;99279.53;;;10.98;100.00
68634;BME280;55625;47.072;22.192;2024-03-02T08:27:20;99282.69;;;11.00;100.00
68634;BME280;55625;47.072;22.192;2024-03-02T08:29:46;99286.00;;;10.98;100.00
68634;BME280;55625;47.072;22.192;2024-03-02T08:32:12;99290.41;;;10.99;100.00
68634;BME280;55625;47.072;22.192;2024-03-02T08:34:38;99288.25;;;11.03;100.00
68634;BME280;55625;47.072;22.192;2024-03-02T08:37:04;99270.13;;;11.10;100.00
68634;BME280;55625;47.072;22.192;2024-03-02T08:39:30;99274.88;;;11.22;100.00
68634;BME280;55625;47.072;22.192;2024-03-02T08:41:56;99274.09;;;11.31;100.00
68634;BME280;55625;47.072;22.192;2024-03-02T08:44:22;99272.41;;;11.42;100.00
68634;BME280;55625;47.072;22.192;2024-03-02T08:46:49;99270.53;;;11.48;100.00
68634;BME280;55625;47.072;22.192;2024-03-02T08:49:15;99259.63;;;11.56;100.00
68634;BME280;55625;47.072;22.192;2024-03-02T08:51:40;99267.25;;;11.68;100.00
68634;BME280;55625;47.072;22.192;2024-03-02T08:54:06;99267.13;;;11.81;100.00
68634;BME280;55625;47.072;22.192;2024-03-02T08:56:32;99274.69;;;11.84;99.08
68634;BME280;55625;47.072;22.192;2024-03-02T08:58:58;99287.81;;;11.91;97.36
68634;BME280;55625;47.072;22.192;2024-03-02T09:01:24;99294.59;;;11.93;95.05
68634;BME280;55625;47.072;22.192;2024-03-02T09:03:50;99305.03;;;11.96;95.66
68634;BME280;55625;47.072;22.192;2024-03-02T09:06:16;99299.50;;;12.02;95.41
68634;BME280;55625;47.072;22.192;2024-03-02T09:08:43;99296.19;;;12.03;93.52
68634;BME280;55625;47.072;22.192;2024-03-02T09:11:10;99294.75;;;12.08;95.67
68634;BME280;55625;47.072;22.192;2024-03-02T09:13:38;99298.72;;;12.10;96.65
68634;BME280;55625;47.072;22.192;2024-03-02T09:16:04;99291.75;;;12.02;94.51
68634;BME280;55625;47.072;22.192;2024-03-02T09:18:31;99296.81;;;12.07;94.67
68634;BME280;55625;47.072;22.192;2024-03-02T09:20:57;99299.97;;;12.09;93.26
68634;BME280;55625;47.072;22.192;2024-03-02T09:23:23;99299.66;;;12.17;93.39
68634;BME280;55625;47.072;22.192;2024-03-02T09:25:49;99295.84;;;12.20;92.63
68634;BME280;55625;47.072;22.192;2024-03-02T09:28:18;99306.63;;;12.25;92.69
68634;BME280;55625;47.072;22.192;2024-03-02T09:30:44;99304.88;;;12.27;93.94
68634;BME280;55625;47.072;22.192;2024-03-02T09:33:10;99307.09;;;12.32;89.96
68634;BME280;55625;47.072;22.192;2024-03-02T09:35:36;99294.91;;;12.32;92.38
68634;BME280;55625;47.072;22.192;2024-03-02T09:38:02;99285.59;;;12.31;92.45
68634;BME280;55625;47.072;22.192;2024-03-02T09:40:29;99289.38;;;12.28;93.03
68634;BME280;55625;47.072;22.192;2024-03-02T09:42:55;99282.22;;;12.42;94.15
68634;BME280;55625;47.072;22.192;2024-03-02T09:45:24;99289.16;;;12.50;91.19
68634;BME280;55625;47.072;22.192;2024-03-02T09:47:51;99298.97;;;12.49;91.02
68634;BME280;55625;47.072;22.192;2024-03-02T09:50:17;99300.56;;;12.59;91.81
68634;BME280;55625;47.072;22.192;2024-03-02T09:52:43;99301.50;;;12.65;90.37
68634;BME280;55625;47.072;22.192;2024-03-02T09:55:10;99299.75;;;12.68;89.94
68634;BME280;55625;47.072;22.192;2024-03-02T09:57:37;99300.03;;;12.70;89.81
68634;BME280;55625;47.072;22.192;2024-03-02T10:00:04;99295.44;;;12.72;89.92
68634;BME280;55625;47.072;22.192;2024-03-02T10:02:30;99287.53;;;12.77;90.23
68634;BME280;55625;47.072;22.192;2024-03-02T10:04:56;99289.72;;;12.91;89.82
68634;BME280;55625;47.072;22.192;2024-03-02T10:07:22;99300.75;;;12.98;89.16
68634;BME280;55625;47.072;22.192;2024-03-02T10:09:49;99295.22;;;12.94;88.78
68634;BME280;55625;47.072;22.192;2024-03-02T10:12:16;99304.22;;;13.02;89.44
68634;BME280;55625;47.072;22.192;2024-03-02T10:14:43;99301.97;;;13.06;87.83
68634;BME280;55625;47.072;22.192;2024-03-02T10:17:13;99305.47;;;13.01;86.69
68634;BME280;55625;47.072;22.192;2024-03-02T10:19:40;99305.13;;;13.08;88.16
68634;BME280;55625;47.072;22.192;2024-03-02T10:22:08;99297.50;;;13.14;89.94
68634;BME280;55625;47.072;22.192;2024-03-02T10:24:42;99292.47;;;13.18;88.76
68634;BME280;55625;47.072;22.192;2024-03-02T10:27:19;99294.91;;;13.34;88.99
68634;BME280;55625;47.072;22.192;2024-03-02T10:29:48;99296.13;;;13.43;88.92
68634;BME280;55625;47.072;22.192;2024-03-02T10:32:16;99286.09;;;13.23;86.52
68634;BME280;55625;47.072;22.192;2024-03-02T10:34:46;99274.94;;;13.34;87.43
68634;BME280;55625;47.072;22.192;2024-03-02T10:37:14;99278.00;;;13.31;84.68
68634;BME280;55625;47.072;22.192;2024-03-02T10:39:41;99275.38;;;13.42;85.46
68634;BME280;55625;47.072;22.192;2024-03-02T10:42:07;99275.06;;;13.40;86.98
68634;BME280;55625;47.072;22.192;2024-03-02T10:44:33;99284.44;;;13.64;87.00
68634;BME280;55625;47.072;22.192;2024-03-02T10:47:03;99280.66;;;13.82;87.38
68634;BME280;55625;47.072;22.192;2024-03-02T10:49:33;99289.72;;;13.81;83.01
68634;BME280;55625;47.072;22.192;2024-03-02T10:51:59;99277.22;;;13.78;86.21
68634;BME280;55625;47.072;22.192;2024-03-02T10:54:26;99274.50;;;13.98;86.73
68634;BME280;55625;47.072;22.192;2024-03-02T10:56:53;99276.47;;;14.07;84.57
68634;BME280;55625;47.072;22.192;2024-03-02T10:59:27;99274.75;;;14.10;83.12
68634;BME280;55625;47.072;22.192;2024-03-02T11:01:58;99271.47;;;14.02;82.78
68634;BME280;55625;47.072;22.192;2024-03-02T11:04:27;99279.41;;;13.83;81.82
68634;BME280;55625;47.072;22.192;2024-03-02T11:07:08;99283.53;;;13.82;82.45
68634;BME280;55625;47.072;22.192;2024-03-02T11:09:42;99280.84;;;13.79;82.58
68634;BME280;55625;47.072;22.192;2024-03-02T11:12:19;99276.00;;;13.70;81.53
68634;BME280;55625;47.072;22.192;2024-03-02T11:14:51;99270.34;;;13.61;81.71
68634;BME280;55625;47.072;22.192;2024-03-02T11:17:20;99279.63;;;13.47;82.88
68634;BME280;55625;47.072;22.192;2024-03-02T11:19:47;99275.00;;;13.25;85.08
68634;BME280;55625;47.072;22.192;2024-03-02T11:22:15;99271.88;;;13.23;83.48
68634;BME280;55625;47.072;22.192;2024-03-02T11:24:52;99264.59;;;13.22;85.78
68634;BME280;55625;47.072;22.192;2024-03-02T11:28:00;99269.53;;;13.03;85.28
68634;BME280;55625;47.072;22.192;2024-03-02T11:33:02;99257.78;;;13.11;86.35
68634;BME280;55625;47.072;22.192;2024-03-02T11:35:38;99258.56;;;13.11;86.43
68634;BME280;55625;47.072;22.192;2024-03-02T11:38:09;99261.47;;;13.02;86.43
68634;BME280;55625;47.072;22.192;2024-03-02T11:40:35;99258.69;;;12.93;86.88
68634;BME280;55625;47.072;22.192;2024-03-02T11:43:02;99261.66;;;12.98;87.51
68634;BME280;55625;47.072;22.192;2024-03-02T11:45:28;99257.13;;;12.83;87.55
68634;BME280;55625;47.072;22.192;2024-03-02T11:47:58;99253.78;;;12.84;86.51
68634;BME280;55625;47.072;22.192;2024-03-02T11:50:36;99261.72;;;12.80;87.27
68634;BME280;55625;47.072;22.192;2024-03-02T11:53:10;99258.09;;;12.80;88.00
68634;BME280;55625;47.072;22.192;2024-03-02T11:55:38;99255.84;;;12.84;88.16
68634;BME280;55625;47.072;22.192;2024-03-02T11:58:09;99259.59;;;12.99;86.85
68634;BME280;55625;47.072;22.192;2024-03-02T12:00:35;99266.81;;;13.09;87.93
68634;BME280;55625;47.072;22.192;2024-03-02T12:03:06;99258.56;;;13.11;88.09
68634;BME280;55625;47.072;22.192;2024-03-02T12:05:34;99264.47;;;13.07;88.65
68634;BME280;55625;47.072;22.192;2024-03-02T12:08:06;99272.88;;;13.02;89.61
68634;BME280;55625;47.072;22.192;2024-03-02T12:10:34;99274.09;;;13.10;89.61
68634;BME280;55625;47.072;22.192;2024-03-02T12:13:03;99269.72;;;13.00;89.39
68634;BME280;55625;47.072;22.192;2024-03-02T12:15:34;99267.78;;;13.06;90.06
68634;BME280;55625;47.072;22.192;2024-03-02T12:18:03;99261.00;;;13.03;89.82
68634;BME280;55625;47.072;22.192;2024-03-02T12:20:32;99261.00;;;13.03;89.54
68634;BME280;55625;47.072;22.192;2024-03-02T12:23:01;99259.91;;;13.01;89.32
68634;BME280;55625;47.072;22.192;2024-03-02T12:25:28;99251.91;;;12.81;89.38
68634;BME280;55625;47.072;22.192;2024-03-02T12:27:57;99253.16;;;12.89;88.76
68634;BME280;55625;47.072;22.192;2024-03-02T12:30:24;99257.59;;;12.81;88.49
68634;BME280;55625;47.072;22.192;2024-03-02T12:32:50;99249.53;;;12.89;89.10
68634;BME280;55625;47.072;22.192;2024-03-02T12:35:18;99253.47;;;12.82;87.55
68634;BME280;55625;47.072;22.192;2024-03-02T12:37:46;99255.06;;;12.83;89.58
68634;BME280;55625;47.072;22.192;2024-03-02T12:40:14;99255.06;;;12.83;89.33
68634;BME280;55625;47.072;22.192;2024-03-02T12:42:41;99259.66;;;12.81;88.91
68634;BME280;55625;47.072;22.192;2024-03-02T12:45:10;99258.69;;;12.93;89.05
68634;BME280;55625;47.072;22.192;2024-03-02T12:47:37;99254.81;;;13.05;88.91
68634;BME280;55625;47.072;22.192;2024-03-02T12:50:04;99249.59;;;13.03;89.22
68634;BME280;55625;47.072;22.192;2024-03-02T12:52:31;99257.75;;;12.87;88.61
68634;BME280;55625;47.072;22.192;2024-03-02T12:55:04;99246.09;;;12.75;89.81